Time;durP1;ratioP1;P1;durP2;ratioP2;P2;SDS_P1;SDS_P2;PMS_P1;PMS_P2;Temp;Humidity;BMP_temperature;BMP_pressure;BME280_temperature;BME280_humidity;BME280_pressure;Samples;Min_cycle;Max_cycle;Signal;HPM_P1;HPM_P2
2022/03/07 00:00:09;;;;;;;11.95;8.52;;;0.90;80.90;;;;;;5063083;28;20272;-76
2022/03/07 00:02:36;;;;;;;9.40;8.48;;;0.90;80.60;;;;;;5091655;28;20278;-76
2022/03/07 00:05:03;;;;;;;9.82;8.82;;;0.90;80.80;;;;;;5091108;28;20230;-76
2022/03/07 00:07:30;;;;;;;10.43;8.63;;;0.90;80.80;;;;;;5090293;28;20872;-76
2022/03/07 00:09:58;;;;;;;12.30;8.10;;;0.90;81.30;;;;;;5087657;28;20218;-76
2022/03/07 00:12:24;;;;;;;9.63;8.63;;;0.90;81.40;;;;;;5000053;28;20199;-76
2022/03/07 00:14:51;;;;;;;8.80;7.93;;;0.90;81.40;;;;;;4988274;28;20612;-76
2022/03/07 00:17:18;;;;;;;11.15;8.80;;;0.90;81.40;;;;;;4987775;28;20325;-75
2022/03/07 00:19:44;;;;;;;10.25;8.05;;;0.90;81.40;;;;;;4988582;28;20207;-76
2022/03/07 00:22:11;;;;;;;9.38;7.85;;;0.80;81.70;;;;;;4988054;28;20238;-76
2022/03/07 00:24:38;;;;;;;9.10;8.20;;;0.80;81.60;;;;;;4988051;28;20319;-76
2022/03/07 00:27:06;;;;;;;9.55;8.65;;;0.80;82.00;;;;;;4987203;28;20574;-76
2022/03/07 00:29:33;;;;;;;9.50;8.45;;;0.80;82.40;;;;;;4987529;28;20210;-76
2022/03/07 00:31:59;;;;;;;8.50;7.28;;;0.80;82.80;;;;;;4988634;28;20205;-76
2022/03/07 00:34:26;;;;;;;10.73;7.88;;;0.80;82.50;;;;;;4987455;28;20231;-76
2022/03/07 00:36:53;;;;;;;9.52;8.30;;;0.80;82.90;;;;;;4987756;28;20199;-76
2022/03/07 00:39:20;;;;;;;8.20;7.40;;;0.90;82.90;;;;;;4987971;28;20203;-76
2022/03/07 00:41:47;;;;;;;9.45;8.43;;;0.80;83.40;;;;;;4987862;28;20696;-76
2022/03/07 00:44:15;;;;;;;9.02;8.07;;;0.80;83.80;;;;;;4988106;28;20226;-75
2022/03/07 00:46:41;;;;;;;8.63;7.38;;;0.70;84.40;;;;;;4986282;28;20602;-76
2022/03/07 00:49:08;;;;;;;9.35;8.35;;;0.70;84.50;;;;;;4987808;28;20211;-76
2022/03/07 00:51:35;;;;;;;8.70;6.70;;;0.70;84.50;;;;;;4987671;28;20214;-76
2022/03/07 00:54:02;;;;;;;9.60;7.82;;;0.70;84.70;;;;;;4987845;28;20222;-76
2022/03/07 00:56:28;;;;;;;11.55;8.30;;;0.70;85.20;;;;;;4987638;28;20211;-76
2022/03/07 00:58:55;;;;;;;9.80;7.82;;;0.70;85.50;;;;;;4986742;28;20203;-76
2022/03/07 01:01:23;;;;;;;9.70;8.10;;;0.60;85.30;;;;;;4987722;28;20231;-76
2022/03/07 01:03:50;;;;;;;13.93;8.38;;;0.60;85.70;;;;;;4987778;28;20234;-76
2022/03/07 01:06:17;;;;;;;8.80;7.57;;;0.60;85.70;;;;;;4987244;28;20694;-76
2022/03/07 01:08:43;;;;;;;8.90;7.57;;;0.60;85.70;;;;;;4987563;28;20737;-76
2022/03/07 01:11:11;;;;;;;12.23;8.18;;;0.60;85.70;;;;;;4987267;28;20202;-75
2022/03/07 01:13:39;;;;;;;8.70;7.60;;;0.60;85.90;;;;;;4988995;28;20227;-75
2022/03/07 01:16:06;;;;;;;7.93;7.10;;;0.50;86.00;;;;;;4988831;28;20207;-75
2022/03/07 01:18:34;;;;;;;9.23;7.78;;;0.50;85.90;;;;;;4988035;28;20199;-76
2022/03/07 01:21:01;;;;;;;8.68;7.55;;;0.60;86.30;;;;;;4988636;28;20223;-76
2022/03/07 01:23:28;;;;;;;8.52;7.60;;;0.50;86.10;;;;;;4988482;28;20228;-76
2022/03/07 01:25:54;;;;;;;9.18;7.55;;;0.50;86.20;;;;;;4988709;28;20199;-76
2022/03/07 01:28:22;;;;;;;9.10;7.07;;;0.50;86.20;;;;;;4987542;28;20688;-77
2022/03/07 01:30:49;;;;;;;9.65;7.40;;;0.50;86.00;;;;;;4988680;28;20207;-76
2022/03/07 01:33:16;;;;;;;9.30;7.15;;;0.50;85.90;;;;;;4988066;28;20677;-76
2022/03/07 01:35:44;;;;;;;8.48;7.45;;;0.50;86.00;;;;;;4988644;28;20231;-75
2022/03/07 01:38:11;;;;;;;7.57;6.82;;;0.40;85.60;;;;;;4987829;28;20214;-76
2022/03/07 01:40:37;;;;;;;9.63;7.75;;;0.40;85.30;;;;;;4988568;28;20966;-76
2022/03/07 01:43:06;;;;;;;9.80;7.18;;;0.40;85.80;;;;;;4988250;28;20207;-76
2022/03/07 01:45:32;;;;;;;8.68;7.25;;;0.30;85.80;;;;;;4988171;28;20226;-76
2022/03/07 01:47:59;;;;;;;7.55;6.28;;;0.40;85.80;;;;;;4987935;28;20203;-76
2022/03/07 01:50:26;;;;;;;7.68;6.93;;;0.30;86.20;;;;;;4987818;28;20215;-76
2022/03/07 01:52:54;;;;;;;8.30;6.97;;;0.30;85.80;;;;;;4988406;28;20230;-76
2022/03/07 01:55:21;;;;;;;7.07;6.38;;;0.30;86.10;;;;;;4987910;28;20219;-76
2022/03/07 01:57:49;;;;;;;8.98;7.60;;;0.20;85.90;;;;;;4991258;28;20207;-76
2022/03/07 02:00:18;;;;;;;6.65;5.95;;;0.20;86.00;;;;;;4991742;28;20604;-76
2022/03/07 02:02:46;;;;;;;8.00;7.13;;;0.20;86.20;;;;;;4991621;28;20234;-76
2022/03/07 02:05:13;;;;;;;8.25;6.72;;;0.20;85.90;;;;;;4991585;28;20230;-76
2022/03/07 02:07:41;;;;;;;6.65;5.60;;;0.20;85.80;;;;;;4990649;28;20206;-76
2022/03/07 02:10:11;;;;;;;9.35;6.47;;;0.20;85.70;;;;;;4991674;28;20210;-76
2022/03/07 02:12:38;;;;;;;7.50;6.45;;;0.10;85.60;;;;;;4991222;28;20203;-76
2022/03/07 02:15:07;;;;;;;7.20;6.50;;;0.10;85.50;;;;;;4991515;28;20230;-76
2022/03/07 02:17:34;;;;;;;7.60;6.70;;;0.10;85.50;;;;;;4990946;28;20634;-76
2022/03/07 02:20:00;;;;;;;7.28;6.20;;;0.10;85.70;;;;;;4991208;28;20693;-76
2022/03/07 02:22:29;;;;;;;8.98;6.15;;;0.00;86.10;;;;;;4991219;28;20231;-76
2022/03/07 02:24:56;;;;;;;7.53;6.57;;;-0.10;85.80;;;;;;4990872;28;20226;-76
2022/03/07 02:27:22;;;;;;;6.75;6.00;;;-0.10;85.80;;;;;;4990719;28;20665;-76
2022/03/07 02:29:49;;;;;;;7.30;6.53;;;-0.20;86.10;;;;;;4991094;28;20210;-76
2022/03/07 02:32:16;;;;;;;6.95;6.25;;;-0.30;86.30;;;;;;4991020;28;20199;-76
2022/03/07 02:34:43;;;;;;;7.00;6.30;;;-0.40;86.60;;;;;;4991367;28;20692;-76
2022/03/07 02:37:09;;;;;;;8.05;6.22;;;-0.40;86.70;;;;;;4990310;28;20214;-76
2022/03/07 02:39:37;;;;;;;7.22;6.53;;;-0.40;86.60;;;;;;4990858;28;20211;-76
2022/03/07 02:42:05;;;;;;;9.27;6.70;;;-0.50;86.50;;;;;;4990895;28;20234;-76
2022/03/07 02:44:32;;;;;;;7.05;6.05;;;-0.50;86.50;;;;;;4990893;28;20364;-76
2022/03/07 02:46:58;;;;;;;7.80;6.45;;;-0.60;86.40;;;;;;4990375;28;20200;-76
2022/03/07 02:49:25;;;;;;;11.45;6.63;;;-0.60;86.60;;;;;;4990536;28;20215;-76
2022/03/07 02:51:52;;;;;;;7.65;6.20;;;-0.70;86.60;;;;;;4991053;28;20203;-76
2022/03/07 02:54:18;;;;;;;9.13;7.65;;;-0.70;86.70;;;;;;4990372;28;20227;-76
2022/03/07 02:56:47;;;;;;;7.20;6.28;;;-0.80;86.70;;;;;;4990515;28;20208;-76
2022/03/07 02:59:14;;;;;;;9.18;6.72;;;-0.90;86.70;;;;;;4990581;28;20249;-76
2022/03/07 03:01:43;;;;;;;8.48;6.05;;;-0.90;86.90;;;;;;4990904;28;20238;-75
2022/03/07 03:04:09;;;;;;;7.60;6.75;;;-1.00;87.00;;;;;;4990686;28;20258;-76
2022/03/07 03:06:36;;;;;;;7.65;5.95;;;-1.00;87.40;;;;;;4989669;28;20268;-76
2022/03/07 03:09:03;;;;;;;8.50;6.88;;;-1.10;86.80;;;;;;4989558;28;20207;-76
2022/03/07 03:11:31;;;;;;;7.40;6.28;;;-1.20;86.90;;;;;;4990405;28;20199;-76
2022/03/07 03:14:00;;;;;;;8.45;6.72;;;-1.20;87.10;;;;;;4990825;28;20219;-76
2022/03/07 03:16:26;;;;;;;9.55;6.88;;;-1.20;86.80;;;;;;4990235;28;20210;-76
2022/03/07 03:18:53;;;;;;;8.10;6.80;;;-1.20;86.60;;;;;;4990187;28;20226;-76
2022/03/07 03:21:20;;;;;;;7.63;6.05;;;-1.20;86.80;;;;;;4990544;28;20226;-76
2022/03/07 03:23:47;;;;;;;9.00;6.70;;;-1.20;87.10;;;;;;4990244;28;20314;-76
2022/03/07 03:26:14;;;;;;;7.50;6.72;;;-1.20;87.20;;;;;;4990697;28;20203;-76
2022/03/07 03:28:41;;;;;;;8.48;6.50;;;-1.30;87.10;;;;;;4989746;28;20210;-76
2022/03/07 03:31:11;;;;;;;8.55;6.53;;;-1.30;86.90;;;;;;4991002;28;20214;-74
2022/03/07 03:33:38;;;;;;;7.75;6.82;;;-1.30;87.00;;;;;;4990352;28;20227;-75
2022/03/07 03:36:06;;;;;;;8.13;7.32;;;-1.30;87.30;;;;;;4990406;28;20218;-75
2022/03/07 03:38:32;;;;;;;9.63;6.85;;;-1.40;87.30;;;;;;4989837;28;20640;-76
2022/03/07 03:40:59;;;;;;;13.45;7.15;;;-1.40;87.60;;;;;;4989984;28;20203;-76
2022/03/07 03:43:26;;;;;;;9.77;7.30;;;-1.40;87.30;;;;;;4990202;28;20558;-76
2022/03/07 03:45:52;;;;;;;9.60;6.53;;;-1.40;87.50;;;;;;4989990;28;20236;-76
2022/03/07 03:48:20;;;;;;;7.50;6.47;;;-1.40;87.00;;;;;;4989403;28;20207;-76
2022/03/07 03:50:47;;;;;;;7.45;6.70;;;-1.50;87.30;;;;;;4990691;28;20199;-76
2022/03/07 03:53:14;;;;;;;10.68;7.00;;;-1.50;87.40;;;;;;4990431;28;20218;-76
2022/03/07 03:55:41;;;;;;;9.25;7.75;;;-1.60;87.40;;;;;;4990550;28;20219;-76
2022/03/07 03:58:07;;;;;;;9.27;7.40;;;-1.60;87.80;;;;;;4990989;28;20211;-76
2022/03/07 04:00:34;;;;;;;9.10;7.20;;;-1.60;88.00;;;;;;4990669;28;20207;-75
2022/03/07 04:03:01;;;;;;;8.70;7.20;;;-1.60;87.80;;;;;;4990220;28;20602;-75
2022/03/07 04:05:29;;;;;;;8.18;7.00;;;-1.60;87.70;;;;;;4990126;28;20238;-75
2022/03/07 04:07:55;;;;;;;9.00;7.35;;;-1.60;87.60;;;;;;4989288;28;20199;-75
2022/03/07 04:10:22;;;;;;;8.73;7.43;;;-1.60;87.30;;;;;;4989550;28;20207;-75
2022/03/07 04:12:49;;;;;;;9.25;7.40;;;-1.60;87.60;;;;;;4990209;28;20608;-76
2022/03/07 04:15:16;;;;;;;11.07;7.15;;;-1.60;87.70;;;;;;4989689;28;20227;-76
2022/03/07 04:17:44;;;;;;;8.50;7.53;;;-1.60;87.70;;;;;;4989274;28;20215;-76
2022/03/07 04:20:13;;;;;;;8.27;7.43;;;-1.70;87.60;;;;;;4989031;28;20336;-76
2022/03/07 04:22:41;;;;;;;8.55;7.57;;;-1.70;87.70;;;;;;4989663;28;20218;-75
2022/03/07 04:25:09;;;;;;;9.70;8.32;;;-1.70;87.50;;;;;;4989449;28;20569;-76
2022/03/07 04:27:36;;;;;;;8.60;7.32;;;-1.70;87.90;;;;;;4988804;28;20203;-75
2022/03/07 04:30:06;;;;;;;9.60;7.13;;;-1.80;88.10;;;;;;4989588;28;20207;-75
2022/03/07 04:32:36;;;;;;;9.07;7.68;;;-1.80;87.90;;;;;;4988874;28;20195;-75
2022/03/07 04:35:05;;;;;;;8.73;7.10;;;-1.80;88.00;;;;;;4985387;28;20226;-75
2022/03/07 04:37:33;;;;;;;9.60;7.45;;;-1.80;88.00;;;;;;4978114;28;20204;-74
2022/03/07 04:40:02;;;;;;;8.80;7.90;;;-1.80;87.90;;;;;;4977227;28;20200;-74
2022/03/07 04:42:29;;;;;;;8.55;7.55;;;-1.80;88.20;;;;;;4978214;28;20223;-74
2022/03/07 04:44:56;;;;;;;10.35;7.88;;;-1.80;88.30;;;;;;4978726;28;20235;-74
2022/03/07 04:47:23;;;;;;;8.93;7.20;;;-1.90;88.20;;;;;;4976902;28;20545;-73
2022/03/07 04:49:50;;;;;;;9.75;7.50;;;-1.90;88.80;;;;;;4977920;28;20660;-75
2022/03/07 04:52:17;;;;;;;8.65;7.50;;;-1.90;88.80;;;;;;4979071;28;20200;-73
2022/03/07 04:54:43;;;;;;;7.78;6.90;;;-1.90;88.90;;;;;;4979524;28;20222;-74
2022/03/07 04:57:11;;;;;;;10.52;8.30;;;-1.90;88.90;;;;;;4978120;28;20203;-75
2022/03/07 04:59:38;;;;;;;10.05;8.25;;;-1.90;89.20;;;;;;4985570;28;20203;-74
2022/03/07 05:02:05;;;;;;;10.05;8.05;;;-1.90;89.30;;;;;;4977293;28;20218;-74
2022/03/07 05:04:32;;;;;;;8.40;7.45;;;-1.90;89.40;;;;;;4978604;28;20227;-75
2022/03/07 05:06:58;;;;;;;9.90;8.15;;;-1.90;89.50;;;;;;4978202;28;20700;-74
2022/03/07 05:09:25;;;;;;;9.82;7.68;;;-1.90;89.80;;;;;;4973357;28;20203;-75
2022/03/07 05:11:52;;;;;;;10.02;7.35;;;-1.90;89.90;;;;;;4973281;28;20199;-75
2022/03/07 05:14:20;;;;;;;9.75;7.43;;;-1.90;89.80;;;;;;4976589;28;20226;-74
2022/03/07 05:16:46;;;;;;;9.77;8.43;;;-1.90;89.90;;;;;;4976860;28;20204;-74
2022/03/07 05:19:13;;;;;;;9.95;7.80;;;-1.90;90.00;;;;;;4977266;28;20686;-72
2022/03/07 05:21:40;;;;;;;8.98;7.90;;;-1.90;90.00;;;;;;4978902;28;20260;-74
2022/03/07 05:24:07;;;;;;;9.32;8.18;;;-1.90;90.00;;;;;;4976972;28;20702;-73
2022/03/07 05:26:34;;;;;;;10.85;7.85;;;-1.90;90.40;;;;;;4984900;28;20207;-77
2022/03/07 05:29:01;;;;;;;12.15;8.93;;;-1.90;90.50;;;;;;4995172;28;20206;-78
2022/03/07 05:31:29;;;;;;;12.40;8.88;;;-1.90;90.40;;;;;;4975666;28;20218;-78
2022/03/07 05:33:56;;;;;;;10.15;7.90;;;-1.80;90.40;;;;;;4975957;28;20738;-78
2022/03/07 05:36:23;;;;;;;11.30;8.95;;;-1.80;90.50;;;;;;4976034;28;20208;-78
2022/03/07 05:38:50;;;;;;;11.18;8.93;;;-1.70;90.40;;;;;;4976963;28;20212;-78
2022/03/07 05:41:17;;;;;;;9.40;8.30;;;-1.70;90.40;;;;;;4981213;28;20211;-76
2022/03/07 05:43:44;;;;;;;10.65;9.02;;;-1.70;90.50;;;;;;4969932;28;20236;-76
2022/03/07 05:46:10;;;;;;;10.93;8.77;;;-1.70;90.50;;;;;;5119979;23;20605;-79
2022/03/07 05:48:39;;;;;;;12.35;9.07;;;-1.60;90.60;;;;;;4990627;28;20277;-77
2022/03/07 05:51:05;;;;;;;10.88;9.00;;;-1.60;90.60;;;;;;4991092;28;20206;-77
2022/03/07 05:53:32;;;;;;;14.93;9.80;;;-1.60;90.70;;;;;;4990820;28;20210;-75
2022/03/07 05:55:59;;;;;;;11.70;9.45;;;-1.60;90.60;;;;;;4991891;28;20573;-80
2022/03/07 05:58:26;;;;;;;12.13;9.25;;;-1.60;90.70;;;;;;4990574;28;20233;-79
2022/03/07 06:00:52;;;;;;;14.00;9.55;;;-1.60;90.60;;;;;;4992092;28;20191;-79
2022/03/07 06:03:19;;;;;;;13.77;9.75;;;-1.50;90.70;;;;;;4991521;28;20305;-79
2022/03/07 06:05:49;;;;;;;11.43;9.00;;;-1.50;90.80;;;;;;4995243;28;20218;-78
2022/03/07 06:08:17;;;;;;;11.27;8.85;;;-1.50;90.70;;;;;;5008472;28;20205;-79
2022/03/07 06:10:44;;;;;;;10.90;8.70;;;-1.50;90.90;;;;;;5009774;28;20199;-77
2022/03/07 06:13:10;;;;;;;12.20;10.15;;;-1.50;90.90;;;;;;5009698;28;20187;-78
2022/03/07 06:15:43;;;;;;;11.32;9.10;;;-1.50;90.90;;;;;;5008576;28;20227;-77
2022/03/07 06:18:10;;;;;;;12.32;10.00;;;-1.60;91.00;;;;;;5007205;28;20211;-77
2022/03/07 06:20:38;;;;;;;14.00;9.68;;;-1.50;91.10;;;;;;5009526;28;20204;-77
2022/03/07 06:23:06;;;;;;;12.18;8.95;;;-1.50;91.20;;;;;;5009387;28;20226;-78
2022/03/07 06:25:34;;;;;;;11.07;8.80;;;-1.50;91.10;;;;;;5009221;28;20242;-78
2022/03/07 06:28:01;;;;;;;13.27;8.88;;;-1.40;91.10;;;;;;5008560;28;20210;-77
2022/03/07 06:30:28;;;;;;;10.85;8.88;;;-1.40;91.10;;;;;;5008161;28;20215;-77
2022/03/07 06:32:55;;;;;;;11.45;9.13;;;-1.40;91.00;;;;;;5022671;28;20195;-77
2022/03/07 06:35:21;;;;;;;11.45;8.40;;;-1.30;91.00;;;;;;5029620;28;20226;-78
2022/03/07 06:37:49;;;;;;;12.45;9.55;;;-1.40;90.90;;;;;;5017261;28;20198;-77
2022/03/07 06:40:19;;;;;;;11.52;8.68;;;-1.40;91.00;;;;;;5014664;28;20198;-77
2022/03/07 06:42:46;;;;;;;13.15;9.50;;;-1.50;90.90;;;;;;5012388;28;20219;-78
2022/03/07 06:45:15;;;;;;;10.65;8.80;;;-1.50;91.10;;;;;;5028072;28;20237;-78
2022/03/07 06:47:43;;;;;;;10.65;8.90;;;-1.50;91.40;;;;;;5033436;28;20200;-78
2022/03/07 06:50:10;;;;;;;11.65;8.23;;;-1.40;91.00;;;;;;5020566;28;20653;-77
2022/03/07 06:52:37;;;;;;;10.93;8.43;;;-1.30;91.10;;;;;;5012727;28;20468;-78
2022/03/07 06:55:04;;;;;;;13.45;9.07;;;-1.30;90.90;;;;;;5012623;28;20245;-78
2022/03/07 06:57:32;;;;;;;10.40;8.23;;;-1.20;90.90;;;;;;5012104;28;20207;-78
2022/03/07 06:59:59;;;;;;;10.40;8.40;;;-1.20;90.70;;;;;;5012071;28;20673;-78
2022/03/07 07:02:26;;;;;;;10.80;8.18;;;-1.20;90.80;;;;;;5013437;28;20234;-78
2022/03/07 07:04:53;;;;;;;9.55;7.63;;;-1.10;90.80;;;;;;5012063;28;20230;-78
2022/03/07 07:07:19;;;;;;;9.63;8.60;;;-0.70;90.90;;;;;;5012290;28;20202;-78
2022/03/07 07:09:46;;;;;;;8.90;7.70;;;-0.10;90.10;;;;;;5012577;28;20692;-78
2022/03/07 07:12:13;;;;;;;12.32;8.48;;;0.50;88.50;;;;;;5012667;28;20230;-79
2022/03/07 07:14:41;;;;;;;10.02;7.78;;;1.10;87.40;;;;;;5012228;28;20219;-78
2022/03/07 07:17:08;;;;;;;11.75;8.50;;;1.40;85.60;;;;;;5011002;28;20206;-77
2022/03/07 07:19:34;;;;;;;10.88;7.65;;;1.90;85.50;;;;;;5011427;28;20209;-78
2022/03/07 07:22:01;;;;;;;8.73;7.50;;;2.20;83.60;;;;;;5011012;28;20206;-78
2022/03/07 07:24:28;;;;;;;11.32;9.00;;;2.60;83.20;;;;;;5010950;28;20606;-77
2022/03/07 07:26:55;;;;;;;8.88;7.97;;;3.00;81.50;;;;;;5010611;28;20214;-78
2022/03/07 07:29:22;;;;;;;8.60;7.38;;;3.40;80.70;;;;;;5012228;28;20206;-78
2022/03/07 07:31:51;;;;;;;9.90;8.07;;;3.80;79.20;;;;;;5012953;28;20215;-81
2022/03/07 07:34:18;;;;;;;8.88;7.60;;;4.10;77.80;;;;;;5019055;28;20222;-81
2022/03/07 07:36:45;;;;;;;9.25;8.35;;;4.40;77.30;;;;;;5013979;28;20213;-78
2022/03/07 07:39:11;;;;;;;7.43;6.72;;;4.80;76.70;;;;;;5011383;28;20202;-78
2022/03/07 07:41:38;;;;;;;8.82;7.40;;;4.80;76.40;;;;;;5010988;28;20229;-77
2022/03/07 07:44:05;;;;;;;8.25;6.80;;;4.90;75.50;;;;;;5009938;28;20226;-77
2022/03/07 07:46:32;;;;;;;10.23;7.53;;;4.90;75.10;;;;;;5010344;28;20210;-77
2022/03/07 07:49:00;;;;;;;9.77;8.23;;;5.30;74.70;;;;;;5010170;28;20198;-79
2022/03/07 07:51:27;;;;;;;12.57;7.78;;;5.40;74.40;;;;;;5010849;28;20202;-78
2022/03/07 07:53:54;;;;;;;9.68;8.52;;;5.50;73.50;;;;;;5009991;28;20322;-78
2022/03/07 07:56:20;;;;;;;13.25;8.00;;;5.90;72.90;;;;;;5011333;28;20681;-78
2022/03/07 07:58:47;;;;;;;8.82;7.97;;;6.10;73.00;;;;;;5013845;28;20601;-79
2022/03/07 08:01:14;;;;;;;7.78;7.07;;;6.20;71.80;;;;;;5014822;28;20243;-79
2022/03/07 08:03:41;;;;;;;9.10;7.93;;;6.80;71.50;;;;;;5015058;28;20230;-79
2022/03/07 08:06:09;;;;;;;8.07;7.28;;;7.20;70.30;;;;;;5014541;28;20203;-79
2022/03/07 08:08:36;;;;;;;8.40;7.70;;;7.60;68.70;;;;;;5008774;28;20665;-76
2022/03/07 08:11:04;;;;;;;9.88;8.88;;;7.60;69.30;;;;;;5007690;28;20206;-76
2022/03/07 08:13:31;;;;;;;8.43;7.63;;;7.90;68.90;;;;;;5012389;28;20213;-79
2022/03/07 08:15:58;;;;;;;8.73;7.65;;;7.90;69.20;;;;;;5014284;28;20206;-79
2022/03/07 08:18:25;;;;;;;9.35;8.38;;;8.30;67.50;;;;;;5012866;28;20213;-79
2022/03/07 08:20:52;;;;;;;9.52;8.45;;;8.60;67.30;;;;;;5014612;28;20207;-75
2022/03/07 08:23:20;;;;;;;10.00;9.10;;;8.20;66.70;;;;;;5015582;28;20246;-78
2022/03/07 08:25:47;;;;;;;8.75;7.95;;;8.40;66.70;;;;;;5017628;28;20199;-77
2022/03/07 08:28:13;;;;;;;8.18;7.38;;;8.40;66.40;;;;;;5014357;28;20225;-77
2022/03/07 08:30:40;;;;;;;9.13;8.15;;;8.70;66.90;;;;;;5015900;28;20202;-77
2022/03/07 08:33:07;;;;;;;8.95;8.05;;;9.10;66.10;;;;;;5015053;28;20282;-77
2022/03/07 08:35:34;;;;;;;8.57;7.68;;;9.20;65.70;;;;;;5011114;28;20218;-77
2022/03/07 08:38:01;;;;;;;8.40;7.60;;;9.40;66.20;;;;;;5013540;28;20206;-78
2022/03/07 08:40:29;;;;;;;10.70;7.60;;;9.70;65.70;;;;;;5014922;28;20206;-78
2022/03/07 08:42:56;;;;;;;9.57;7.90;;;10.10;63.30;;;;;;5014847;28;20681;-76
2022/03/07 08:45:27;;;;;;;9.40;8.07;;;9.80;63.70;;;;;;5009660;28;20226;-77
2022/03/07 08:47:55;;;;;;;8.52;7.63;;;9.90;63.50;;;;;;4994853;28;20218;-77
2022/03/07 08:50:23;;;;;;;9.05;8.13;;;10.20;61.40;;;;;;4988538;28;20243;-77
2022/03/07 08:52:51;;;;;;;8.93;8.07;;;10.80;61.00;;;;;;4988104;28;20213;-76
2022/03/07 08:55:18;;;;;;;10.05;8.38;;;11.60;61.90;;;;;;4988134;28;20237;-76
2022/03/07 08:57:46;;;;;;;8.00;7.20;;;11.50;59.40;;;;;;5001841;28;20271;-79
2022/03/07 09:00:14;;;;;;;9.15;8.20;;;11.80;59.50;;;;;;5018235;28;20214;-78
2022/03/07 09:02:41;;;;;;;10.63;7.90;;;11.90;58.40;;;;;;5017365;28;20246;-77
2022/03/07 09:05:09;;;;;;;7.93;7.22;;;11.70;59.30;;;;;;5018005;28;20230;-77
2022/03/07 09:07:36;;;;;;;8.00;7.20;;;11.70;58.40;;;;;;5015893;28;20217;-78
2022/03/07 09:10:04;;;;;;;7.97;7.20;;;12.00;58.20;;;;;;5017726;28;20209;-78
2022/03/07 09:12:30;;;;;;;9.27;8.38;;;12.40;56.40;;;;;;5017254;28;20210;-77
2022/03/07 09:15:00;;;;;;;8.90;8.00;;;11.90;58.00;;;;;;5016546;28;20226;-78
2022/03/07 09:17:27;;;;;;;8.55;7.68;;;12.10;57.60;;;;;;5008992;28;20215;-76
2022/03/07 09:19:55;;;;;;;8.88;7.97;;;11.80;57.20;;;;;;5009625;28;20283;-76
2022/03/07 09:22:23;;;;;;;8.88;8.02;;;11.20;57.80;;;;;;5015032;28;20206;-77
2022/03/07 09:24:50;;;;;;;8.70;7.80;;;11.40;58.20;;;;;;5017294;28;20291;-77
2022/03/07 09:27:16;;;;;;;8.75;7.95;;;12.20;56.00;;;;;;5030498;28;20195;-77
2022/03/07 09:29:43;;;;;;;8.32;7.57;;;12.50;55.90;;;;;;5030385;28;20776;-76
2022/03/07 09:32:11;;;;;;;8.20;7.45;;;11.90;55.40;;;;;;5030009;28;20209;-76
2022/03/07 09:34:38;;;;;;;11.00;8.25;;;11.30;55.90;;;;;;5029413;28;20225;-76
2022/03/07 09:37:06;;;;;;;8.90;8.00;;;10.70;58.00;;;;;;5028755;28;20201;-77
2022/03/07 09:39:33;;;;;;;8.20;7.38;;;11.20;56.80;;;;;;5028949;28;20268;-77
2022/03/07 09:42:01;;;;;;;8.52;7.68;;;12.00;55.90;;;;;;5011931;28;20208;-76
2022/03/07 09:44:28;;;;;;;9.48;8.50;;;11.40;56.20;;;;;;5009074;28;20233;-77
2022/03/07 09:46:57;;;;;;;9.30;7.95;;;9.80;59.00;;;;;;5011747;28;20649;-76
2022/03/07 09:49:26;;;;;;;8.73;7.93;;;8.30;61.90;;;;;;5014454;28;20206;-76
2022/03/07 09:51:53;;;;;;;8.30;6.97;;;8.60;62.60;;;;;;5015821;28;20203;-76
2022/03/07 09:54:20;;;;;;;9.05;8.15;;;10.30;60.00;;;;;;5017126;28;20223;-77
2022/03/07 09:56:47;;;;;;;9.15;8.30;;;11.30;56.40;;;;;;4999999;28;20210;-78
2022/03/07 09:59:13;;;;;;;9.38;8.05;;;10.60;57.50;;;;;;4997223;28;20199;-77
2022/03/07 10:01:40;;;;;;;9.23;8.32;;;9.90;60.70;;;;;;4998098;28;20214;-78
2022/03/07 10:04:08;;;;;;;10.05;9.05;;;10.00;58.70;;;;;;4997796;28;20223;-78
2022/03/07 10:06:37;;;;;;;9.35;8.40;;;9.40;60.30;;;;;;4997910;28;20203;-77
2022/03/07 10:09:05;;;;;;;9.35;8.18;;;8.40;62.00;;;;;;4997279;28;20218;-77
2022/03/07 10:11:33;;;;;;;11.27;8.32;;;8.50;63.90;;;;;;4998202;28;20452;-78
2022/03/07 10:14:02;;;;;;;10.20;8.20;;;10.40;60.80;;;;;;4997778;28;20249;-77
2022/03/07 10:16:39;;;;;;;13.05;8.32;;;12.30;58.30;;;;;;4998819;28;20214;-78
2022/03/07 10:19:09;;;;;;;8.98;8.25;;;12.60;56.70;;;;;;5002296;28;20210;-79
2022/03/07 10:21:38;;;;;;;11.60;9.35;;;12.00;55.90;;;;;;5000901;28;20207;-79
2022/03/07 10:24:05;;;;;;;10.15;9.15;;;10.80;57.80;;;;;;5000895;28;20235;-78
2022/03/07 10:26:35;;;;;;;9.65;8.70;;;9.30;60.50;;;;;;5000545;28;20233;-78
2022/03/07 10:29:04;;;;;;;9.63;8.63;;;8.10;63.10;;;;;;4999370;28;20207;-78
2022/03/07 10:31:31;;;;;;;8.80;8.00;;;7.70;63.90;;;;;;5000868;28;20211;-78
2022/03/07 10:34:03;;;;;;;10.32;8.75;;;7.50;65.30;;;;;;4999599;28;20231;-77
2022/03/07 10:36:35;;;;;;;10.88;8.80;;;6.90;66.30;;;;;;5000129;28;20285;-78
2022/03/07 10:39:05;;;;;;;13.10;9.00;;;6.60;67.30;;;;;;4998695;28;20207;-78
2022/03/07 10:41:37;;;;;;;10.52;9.27;;;6.30;67.50;;;;;;5000785;28;20203;-78
2022/03/07 10:44:06;;;;;;;9.60;8.70;;;5.90;67.90;;;;;;4998890;28;20256;-78
2022/03/07 10:46:33;;;;;;;9.82;8.45;;;5.60;69.10;;;;;;4999176;28;20207;-77
2022/03/07 10:49:00;;;;;;;11.57;9.93;;;5.20;69.80;;;;;;4998316;28;20199;-78
2022/03/07 10:51:27;;;;;;;10.98;9.27;;;5.70;68.80;;;;;;4999396;28;20207;-78
2022/03/07 10:53:55;;;;;;;10.43;9.05;;;6.90;67.20;;;;;;4999777;28;20239;-78
2022/03/07 10:56:24;;;;;;;9.70;8.52;;;7.30;65.90;;;;;;4998837;28;20219;-77
2022/03/07 10:58:53;;;;;;;10.48;8.80;;;6.90;66.60;;;;;;4997785;28;20294;-79
2022/03/07 11:01:28;;;;;;;10.02;8.70;;;6.60;67.30;;;;;;5000372;28;20266;-77
2022/03/07 11:03:55;;;;;;;9.95;8.93;;;6.30;68.60;;;;;;4999765;28;20236;-78
2022/03/07 11:06:22;;;;;;;9.48;8.55;;;5.90;69.20;;;;;;5000285;28;20213;-77
2022/03/07 11:08:49;;;;;;;9.90;8.88;;;6.90;70.10;;;;;;5000006;28;20264;-78
2022/03/07 11:11:16;;;;;;;10.25;9.13;;;9.40;65.80;;;;;;5000009;28;20215;-79
2022/03/07 11:13:45;;;;;;;9.88;8.90;;;11.10;58.30;;;;;;5000708;28;20223;-78
2022/03/07 11:16:13;;;;;;;9.77;8.77;;;11.20;58.40;;;;;;5000548;28;20207;-78
2022/03/07 11:18:41;;;;;;;10.30;9.40;;;9.80;61.00;;;;;;4998805;28;20575;-77
2022/03/07 11:21:08;;;;;;;9.80;8.70;;;8.50;62.70;;;;;;4999224;28;20210;-77
2022/03/07 11:23:35;;;;;;;10.95;8.40;;;7.20;66.00;;;;;;4999417;28;20594;-78
2022/03/07 11:26:01;;;;;;;10.52;9.43;;;6.60;68.60;;;;;;5005236;28;20199;-78
2022/03/07 11:28:31;;;;;;;11.18;8.38;;;6.40;69.00;;;;;;5015954;28;20202;-78
2022/03/07 11:30:59;;;;;;;11.25;9.25;;;6.40;69.20;;;;;;5018240;28;20203;-79
2022/03/07 11:33:33;;;;;;;10.73;9.40;;;6.70;68.10;;;;;;5018382;28;20203;-78
2022/03/07 11:36:03;;;;;;;10.73;8.77;;;6.90;67.80;;;;;;5017139;28;20210;-77
2022/03/07 11:38:31;;;;;;;9.88;8.77;;;7.40;66.00;;;;;;5017755;28;20206;-77
2022/03/07 11:41:01;;;;;;;11.23;8.45;;;7.40;65.10;;;;;;5014604;28;20215;-78
2022/03/07 11:43:30;;;;;;;11.55;8.85;;;8.00;65.50;;;;;;5016965;28;20206;-78
2022/03/07 11:46:00;;;;;;;10.10;9.10;;;9.20;64.00;;;;;;5020656;28;20211;-78
2022/03/07 11:48:31;;;;;;;10.63;8.77;;;10.70;61.00;;;;;;5020188;28;20202;-76
2022/03/07 11:50:58;;;;;;;10.27;9.15;;;12.20;58.70;;;;;;5015342;28;20203;-76
2022/03/07 11:53:27;;;;;;;9.38;8.48;;;13.00;57.60;;;;;;5009164;28;20209;-76
2022/03/07 11:55:54;;;;;;;10.02;9.02;;;13.30;57.40;;;;;;5008756;28;20582;-75
2022/03/07 11:58:28;;;;;;;9.93;9.00;;;13.50;57.30;;;;;;5007523;28;20203;-76
2022/03/07 12:01:10;;;;;;;9.90;8.90;;;14.20;56.50;;;;;;5008302;28;20238;-76
2022/03/07 12:03:38;;;;;;;9.33;8.40;;;14.90;55.20;;;;;;5008361;28;20459;-75
2022/03/07 12:06:09;;;;;;;9.57;8.67;;;14.40;55.30;;;;;;5007957;28;21039;-76
2022/03/07 12:08:47;;;;;;;9.87;8.93;;;14.50;53.70;;;;;;4989162;28;20879;-75
2022/03/07 12:11:28;;;;;;;10.37;8.43;;;15.10;54.10;;;;;;4987583;28;20458;-76
2022/03/07 12:14:02;;;;;;;10.80;9.70;;;14.90;52.00;;;;;;4988631;28;20910;-75
2022/03/07 12:16:32;;;;;;;9.07;8.27;;;13.60;53.50;;;;;;4988961;28;20462;-75
2022/03/07 12:19:09;;;;;;;10.13;9.13;;;14.00;55.60;;;;;;4988361;28;20470;-75
2022/03/07 12:21:37;;;;;;;9.33;8.27;;;14.00;54.10;;;;;;4988941;28;20476;-76
2022/03/07 12:24:07;;;;;;;9.70;8.80;;;15.00;53.90;;;;;;4996484;28;20490;-76
2022/03/07 12:26:43;;;;;;;10.50;9.27;;;14.90;53.30;;;;;;5007512;28;20458;-74
2022/03/07 12:29:10;;;;;;;10.43;9.07;;;15.00;53.60;;;;;;5007784;28;20469;-75
2022/03/07 12:31:38;;;;;;;9.37;8.40;;;15.70;52.90;;;;;;5008200;28;20514;-76
2022/03/07 12:34:07;;;;;;;8.63;7.83;;;16.20;52.60;;;;;;5007024;28;20567;-76
2022/03/07 12:36:34;;;;;;;10.40;9.30;;;16.50;52.10;;;;;;5007091;28;20866;-75
2022/03/07 12:39:01;;;;;;;9.10;8.30;;;16.60;51.50;;;;;;5007149;28;20694;-74
2022/03/07 12:41:32;;;;;;;9.87;8.77;;;16.00;52.10;;;;;;5007560;28;20461;-76
2022/03/07 12:44:00;;;;;;;11.07;9.90;;;16.60;51.90;;;;;;5007245;28;20492;-75
2022/03/07 12:46:28;;;;;;;10.60;9.57;;;16.30;50.70;;;;;;5007666;28;20472;-76
2022/03/07 12:48:58;;;;;;;9.07;8.30;;;15.30;52.20;;;;;;5005418;28;20466;-76